createdAt,value
2018-05-03T00:00:59.746Z,16.80
2018-05-03T00:03:30.103Z,16.90
2018-05-03T00:05:59.209Z,16.90
2018-05-03T00:08:27.884Z,17.30
2018-05-03T00:10:56.741Z,17.60
2018-05-03T00:13:25.481Z,18.00
2018-05-03T00:15:54.208Z,18.10
2018-05-03T00:18:23.023Z,18.10
2018-05-03T00:20:51.722Z,17.80
2018-05-03T00:23:21.148Z,17.40
2018-05-03T00:25:49.911Z,17.50
2018-05-03T00:28:18.650Z,17.00
2018-05-03T00:30:47.378Z,16.40
2018-05-03T00:33:17.676Z,15.80
2018-05-03T00:35:46.429Z,15.80
2018-05-03T00:38:15.987Z,16.10
2018-05-03T00:40:46.169Z,17.10
2018-05-03T00:43:16.282Z,17.40
2018-05-03T00:45:45.876Z,17.40
2018-05-03T00:48:15.424Z,17.40
2018-05-03T00:50:46.017Z,17.50
2018-05-03T00:53:15.831Z,17.00
2018-05-03T00:55:46.132Z,16.60
2018-05-03T00:58:15.616Z,16.60
2018-05-03T01:00:45.777Z,16.60
2018-05-03T01:03:15.802Z,16.60
2018-05-03T01:05:45.646Z,16.70
2018-05-03T01:08:14.880Z,16.60
2018-05-03T01:10:45.069Z,16.60
2018-05-03T01:13:15.048Z,16.50
2018-05-03T01:15:43.976Z,16.80
2018-05-03T01:18:13.457Z,16.40
2018-05-03T01:20:42.636Z,16.40
2018-05-03T01:23:12.166Z,16.20
2018-05-03T01:25:40.925Z,16.30
2018-05-03T01:28:09.720Z,15.90
2018-05-03T01:30:38.443Z,15.90
2018-05-03T01:33:07.940Z,15.60
2018-05-03T01:35:48.927Z,15.70
2018-05-03T01:38:18.441Z,16.00
2018-05-03T01:40:47.666Z,16.00
2018-05-03T01:43:16.440Z,16.30
2018-05-03T01:45:45.857Z,16.60
2018-05-03T01:48:16.103Z,16.10
2018-05-03T01:50:45.388Z,16.10
2018-05-03T01:53:14.172Z,16.10
2018-05-03T01:55:42.907Z,16.10
2018-05-03T01:58:12.547Z,16.30
2018-05-03T02:00:41.991Z,16.10
2018-05-03T02:03:10.772Z,16.50
2018-05-03T02:05:39.494Z,16.60
2018-05-03T02:08:09.575Z,16.30
2018-05-03T02:10:39.154Z,16.40
2018-05-03T02:13:08.108Z,16.60
2018-05-03T02:15:37.126Z,16.60
2018-05-03T02:18:05.980Z,16.50
2018-05-03T02:20:35.488Z,16.60
2018-05-03T02:23:04.236Z,16.60
2018-05-03T02:25:33.497Z,16.50
2018-05-03T02:28:02.212Z,16.30
2018-05-03T02:30:30.956Z,16.30
2018-05-03T02:33:00.327Z,16.30
2018-05-03T02:35:29.510Z,16.30
2018-05-03T02:37:58.235Z,16.30
2018-05-03T02:40:27.063Z,16.40
2018-05-03T02:42:55.807Z,16.50
2018-05-03T02:45:25.303Z,15.90
2018-05-03T02:47:55.377Z,16.00
2018-05-03T02:50:24.766Z,15.90
2018-05-03T02:52:53.501Z,16.20
2018-05-03T02:55:22.506Z,16.10
2018-05-03T02:58:09.539Z,16.00
2018-05-03T03:00:56.041Z,16.00
2018-05-03T03:03:42.176Z,16.00
2018-05-03T03:06:28.346Z,15.80
2018-05-03T03:23:06.297Z,15.60
2018-05-03T03:26:07.262Z,15.70
2018-05-03T03:28:53.380Z,15.20
2018-05-03T03:31:39.541Z,15.00
2018-05-03T03:34:20.193Z,15.10
2018-05-03T03:37:26.473Z,15.30
2018-05-03T03:40:12.708Z,15.40
2018-05-03T03:56:19.437Z,15.20
2018-05-03T03:58:48.172Z,15.40
2018-05-03T04:01:16.942Z,15.40
2018-05-03T04:03:45.925Z,15.50
2018-05-03T04:06:14.595Z,15.20
2018-05-03T04:08:44.112Z,15.60
2018-05-03T04:11:12.981Z,15.60
2018-05-03T04:13:41.689Z,15.20
2018-05-03T04:16:10.455Z,15.10
2018-05-03T04:18:51.676Z,14.60
2018-05-03T04:21:32.067Z,14.60
2018-05-03T04:37:30.268Z,15.70
2018-05-03T04:39:59.020Z,15.50
2018-05-03T04:42:27.752Z,15.70
2018-05-03T04:44:56.510Z,16.00
2018-05-03T04:47:26.047Z,16.80
2018-05-03T04:49:54.799Z,16.80
2018-05-03T04:52:23.525Z,16.60
2018-05-03T04:54:52.288Z,16.00
2018-05-03T04:57:21.068Z,16.20
2018-05-03T04:59:50.600Z,16.30
2018-05-03T05:02:19.464Z,16.30
2018-05-03T05:04:48.258Z,16.50
2018-05-03T05:07:16.977Z,16.80
2018-05-03T05:09:45.724Z,17.10
2018-05-03T05:12:14.576Z,17.30
2018-05-03T05:14:43.328Z,17.50
2018-05-03T05:17:12.068Z,17.60
2018-05-03T05:19:40.802Z,17.90
2018-05-03T05:22:09.565Z,18.10
2018-05-03T05:24:38.303Z,17.60
2018-05-03T05:27:07.078Z,17.30
2018-05-03T05:29:35.895Z,17.50
2018-05-03T05:32:04.913Z,17.60
2018-05-03T05:34:33.653Z,17.00
2018-05-03T05:37:03.564Z,17.20
2018-05-03T05:39:32.297Z,17.10
2018-05-03T05:42:01.081Z,17.70
2018-05-03T05:44:29.869Z,17.50
2018-05-03T05:46:58.613Z,17.80
2018-05-03T05:49:27.344Z,17.70
2018-05-03T05:51:56.124Z,17.90
2018-05-03T05:54:24.860Z,17.80
2018-05-03T05:56:53.616Z,17.70
2018-05-03T05:59:22.406Z,18.10
2018-05-03T06:01:51.141Z,18.60
2018-05-03T06:04:20.328Z,18.90
2018-05-03T06:06:49.032Z,18.50
2018-05-03T06:09:17.828Z,18.50
2018-05-03T06:11:46.556Z,18.70
2018-05-03T06:14:15.324Z,18.90
2018-05-03T06:16:44.093Z,19.20
2018-05-03T06:19:12.850Z,18.80
2018-05-03T06:21:42.422Z,19.30
2018-05-03T06:24:11.296Z,19.30
2018-05-03T06:26:40.037Z,19.20
2018-05-03T06:29:08.829Z,19.20
2018-05-03T06:31:37.616Z,19.60
2018-05-03T06:34:06.419Z,19.80
2018-05-03T06:36:35.184Z,19.90
2018-05-03T06:39:04.381Z,19.60
2018-05-03T06:41:33.100Z,19.20
2018-05-03T06:44:01.880Z,19.00
2018-05-03T06:46:31.501Z,18.30
2018-05-03T06:49:01.025Z,18.00
2018-05-03T06:51:30.536Z,18.00
2018-05-03T06:53:59.253Z,18.30
2018-05-03T06:56:28.960Z,18.50
2018-05-03T06:58:58.683Z,18.60
2018-05-03T07:01:27.439Z,18.20
2018-05-03T07:03:56.216Z,18.40
2018-05-03T07:06:24.972Z,18.50
2018-05-03T07:08:53.761Z,18.70
2018-05-03T07:11:23.265Z,19.40
2018-05-03T07:13:52.806Z,19.30
2018-05-03T07:16:21.642Z,19.30
2018-05-03T07:18:50.323Z,19.00
2018-05-03T07:21:19.197Z,18.90
2018-05-03T07:23:47.972Z,19.50
2018-05-03T07:26:16.743Z,19.30
2018-05-03T07:28:45.538Z,19.20
2018-05-03T07:31:15.121Z,19.30
2018-05-03T07:33:44.023Z,19.30
2018-05-03T07:36:12.772Z,19.30
2018-05-03T07:38:41.595Z,19.60
2018-05-03T07:41:10.329Z,19.80
2018-05-03T07:43:39.065Z,19.50
2018-05-03T07:46:07.830Z,19.50
2018-05-03T07:48:36.690Z,19.70
2018-05-03T07:51:06.664Z,19.70
2018-05-03T07:53:35.888Z,20.00
2018-05-03T07:56:04.685Z,20.00
2018-05-03T07:58:33.493Z,20.20
2018-05-03T08:01:02.467Z,20.80
2018-05-03T08:03:31.528Z,20.50
2018-05-03T08:06:01.057Z,20.50
2018-05-03T08:08:29.805Z,20.50
2018-05-03T08:10:59.335Z,20.50
2018-05-03T08:13:28.063Z,20.50
2018-05-03T08:15:56.951Z,21.10
2018-05-03T08:18:25.704Z,21.20
2018-05-03T08:20:54.437Z,21.30
2018-05-03T08:23:23.297Z,21.40
2018-05-03T08:25:52.084Z,21.80
2018-05-03T08:28:20.824Z,21.80
2018-05-03T08:30:49.576Z,21.70
2018-05-03T08:33:18.309Z,21.50
2018-05-03T08:35:47.095Z,21.60
2018-05-03T08:38:16.637Z,22.10
2018-05-03T08:40:45.417Z,22.00
2018-05-03T08:43:14.196Z,21.90
2018-05-03T08:45:43.701Z,22.50
2018-05-03T08:48:13.311Z,22.90
2018-05-03T08:50:42.099Z,22.90
2018-05-03T08:53:10.816Z,22.80
2018-05-03T08:55:39.655Z,22.50
2018-05-03T08:58:08.361Z,22.70
2018-05-03T09:00:37.870Z,22.30
2018-05-03T09:03:07.434Z,22.20
2018-05-03T09:05:36.529Z,22.20
2018-05-03T09:08:06.716Z,22.30
2018-05-03T09:10:36.501Z,22.60
2018-05-03T09:13:07.100Z,23.30
2018-05-03T09:15:36.701Z,23.30
2018-05-03T09:18:06.521Z,23.30
2018-05-03T09:20:35.329Z,23.50
2018-05-03T09:23:04.094Z,23.60
2018-05-03T09:25:32.852Z,23.90
2018-05-03T09:28:01.700Z,24.00
2018-05-03T09:30:30.568Z,23.90
2018-05-03T09:32:59.310Z,24.00
2018-05-03T09:35:28.084Z,24.20
2018-05-03T09:37:57.084Z,24.20
2018-05-03T09:40:25.851Z,23.90
2018-05-03T09:42:54.592Z,24.30
2018-05-03T09:45:23.347Z,24.00
2018-05-03T09:47:52.114Z,24.10
2018-05-03T09:50:21.158Z,24.80
2018-05-03T09:52:49.969Z,24.50
2018-05-03T09:55:18.757Z,23.90
2018-05-03T09:57:47.545Z,24.30
2018-05-03T10:00:16.401Z,24.60
2018-05-03T10:02:45.139Z,25.20
2018-05-03T10:05:14.019Z,25.40
2018-05-03T10:07:42.804Z,25.10
2018-05-03T10:10:11.592Z,25.40
2018-05-03T10:12:40.346Z,25.30
2018-05-03T10:15:09.378Z,25.70
2018-05-03T10:17:38.121Z,25.40
2018-05-03T10:20:07.060Z,25.90
2018-05-03T10:22:36.876Z,25.60
2018-05-03T10:25:05.588Z,26.20
2018-05-03T10:27:35.099Z,26.50
2018-05-03T10:30:04.010Z,26.50
2018-05-03T10:32:32.746Z,26.20
2018-05-03T10:35:01.484Z,26.60
2018-05-03T10:37:30.294Z,25.70
2018-05-03T10:39:59.033Z,25.50
2018-05-03T10:42:27.784Z,26.20
2018-05-03T10:44:56.579Z,27.10
2018-05-03T10:47:50.622Z,27.60
2018-05-03T10:50:19.359Z,27.40
2018-05-03T10:52:48.177Z,27.00
2018-05-03T10:55:16.930Z,27.50
2018-05-03T10:57:46.787Z,27.00
2018-05-03T11:00:15.610Z,27.30
2018-05-03T11:02:44.338Z,27.30
2018-05-03T11:05:13.127Z,27.30
2018-05-03T11:07:41.869Z,26.80
2018-05-03T11:10:10.589Z,26.50
2018-05-03T11:12:39.353Z,26.70
2018-05-03T11:15:08.188Z,26.70
2018-05-03T11:17:36.975Z,26.30
2018-05-03T11:20:05.747Z,26.30
2018-05-03T11:22:34.549Z,26.40
2018-05-03T11:25:03.408Z,26.90
2018-05-03T11:27:32.200Z,26.70
2018-05-03T11:30:00.969Z,26.10
2018-05-03T11:32:30.790Z,26.50
2018-05-03T11:35:00.350Z,27.30
2018-05-03T11:37:30.527Z,27.30
2018-05-03T11:40:00.396Z,27.10
2018-05-03T11:42:30.094Z,27.00
2018-05-03T11:45:00.133Z,27.10
2018-05-03T11:47:29.603Z,26.70
2018-05-03T11:49:58.347Z,26.20
2018-05-03T11:52:27.995Z,26.10
2018-05-03T11:54:57.365Z,25.60
2018-05-03T11:57:27.988Z,25.90
2018-05-03T11:59:56.760Z,26.40
2018-05-03T12:02:25.509Z,26.50
2018-05-03T12:04:55.570Z,26.70
2018-05-03T12:07:25.624Z,27.60
2018-05-03T12:09:55.086Z,27.60
2018-05-03T12:12:23.995Z,27.20
2018-05-03T12:14:53.024Z,27.70
2018-05-03T12:17:21.802Z,27.40
2018-05-03T12:19:51.286Z,26.90
2018-05-03T12:22:20.061Z,26.60
2018-05-03T12:24:48.847Z,26.70
2018-05-03T12:27:18.181Z,26.50
2018-05-03T12:29:48.033Z,26.50
2018-05-03T12:32:16.806Z,26.50
2018-05-03T12:34:45.645Z,26.50
2018-05-03T12:37:14.332Z,26.70
2018-05-03T12:39:43.229Z,27.10
2018-05-03T12:42:12.742Z,27.30
2018-05-03T12:44:41.498Z,27.40
2018-05-03T12:47:12.030Z,27.70
2018-05-03T12:49:40.908Z,27.20
2018-05-03T12:52:09.867Z,26.60
2018-05-03T12:54:38.689Z,26.90
2018-05-03T12:57:07.437Z,27.50
2018-05-03T12:59:37.263Z,27.70
2018-05-03T13:02:05.989Z,27.60
2018-05-03T13:04:34.779Z,27.70
2018-05-03T13:07:03.521Z,27.90
2018-05-03T13:09:32.267Z,27.90
2018-05-03T13:12:01.796Z,27.80
2018-05-03T13:14:30.669Z,27.70
2018-05-03T13:16:59.441Z,27.90
2018-05-03T13:19:28.305Z,28.00
2018-05-03T13:21:58.514Z,27.80
2018-05-03T13:24:27.849Z,27.50
2018-05-03T13:26:56.901Z,26.80
2018-05-03T13:29:26.791Z,26.50
2018-05-03T13:31:55.580Z,26.10
2018-05-03T13:34:25.325Z,26.20
2018-05-03T13:36:54.141Z,26.10
2018-05-03T13:39:23.054Z,25.90
2018-05-03T13:41:51.810Z,26.50
2018-05-03T13:44:20.607Z,26.60
2018-05-03T13:46:49.435Z,26.20
2018-05-03T13:49:19.301Z,26.40
2018-05-03T13:51:49.108Z,26.20
2018-05-03T13:54:17.883Z,25.90
2018-05-03T13:56:47.395Z,25.40
2018-05-03T13:59:16.182Z,25.40
2018-05-03T14:01:44.922Z,25.80
2018-05-03T14:04:13.652Z,25.90
2018-05-03T14:06:42.405Z,25.30
2018-05-03T14:09:11.147Z,25.30
2018-05-03T14:11:39.936Z,25.20
2018-05-03T14:14:09.341Z,25.10
2018-05-03T14:16:38.161Z,25.70
2018-05-03T14:19:06.986Z,25.70
2018-05-03T14:21:36.537Z,25.90
2018-05-03T14:24:05.323Z,25.80
2018-05-03T14:26:34.216Z,25.90
2018-05-03T14:29:03.051Z,26.00
2018-05-03T14:31:32.588Z,25.30
2018-05-03T14:34:01.355Z,25.30
2018-05-03T14:36:30.106Z,24.80
2018-05-03T14:39:00.493Z,25.10
2018-05-03T14:41:29.264Z,25.50
2018-05-03T14:43:58.019Z,25.80
2018-05-03T14:46:26.799Z,26.20
2018-05-03T14:48:55.571Z,26.30
2018-05-03T14:51:24.362Z,26.50
2018-05-03T14:53:53.737Z,26.30
2018-05-03T14:56:22.512Z,26.60
2018-05-03T14:58:52.001Z,26.50
2018-05-03T15:01:21.521Z,26.50
2018-05-03T15:03:50.274Z,26.60
2018-05-03T15:06:20.504Z,26.70
2018-05-03T15:08:49.870Z,26.70
2018-05-03T15:11:19.770Z,26.20
2018-05-03T15:13:48.556Z,25.80
2018-05-03T15:16:17.361Z,25.50
2018-05-03T15:18:46.120Z,25.10
2018-05-03T15:21:16.090Z,25.30
2018-05-03T15:23:44.829Z,25.30
2018-05-03T15:26:13.636Z,25.20
2018-05-03T15:28:42.455Z,25.10
2018-05-03T15:31:11.181Z,25.20
2018-05-03T15:33:40.794Z,24.80
2018-05-03T15:36:09.440Z,25.10
2018-05-03T15:38:38.219Z,25.10
2018-05-03T15:41:06.999Z,24.80
2018-05-03T15:43:35.781Z,24.90
2018-05-03T15:46:04.762Z,25.10
2018-05-03T15:48:34.298Z,24.90
2018-05-03T15:51:03.303Z,24.90
2018-05-03T15:53:32.048Z,24.60
2018-05-03T15:56:00.818Z,24.40
2018-05-03T15:58:30.380Z,24.30
2018-05-03T16:01:00.851Z,24.10
2018-05-03T16:03:30.456Z,24.20
2018-05-03T16:06:01.331Z,24.10
2018-05-03T16:08:31.027Z,24.10
2018-05-03T16:11:00.656Z,24.50
2018-05-03T16:13:29.508Z,24.80
2018-05-03T16:15:59.668Z,24.80
2018-05-03T16:18:30.884Z,24.80
2018-05-03T16:21:00.752Z,24.60
2018-05-03T16:23:30.533Z,24.50
2018-05-03T16:26:00.009Z,24.50
2018-05-03T16:28:28.776Z,24.60
2018-05-03T16:30:57.554Z,24.70
2018-05-03T16:33:26.656Z,24.50
2018-05-03T16:35:56.190Z,24.40
2018-05-03T16:38:25.033Z,24.40
2018-05-03T16:40:54.440Z,24.70
2018-05-03T16:43:23.219Z,24.60
2018-05-03T16:45:53.838Z,24.30
2018-05-03T16:48:23.041Z,23.90
2018-05-03T16:50:52.708Z,24.10
2018-05-03T16:53:22.654Z,24.00
2018-05-03T16:55:51.388Z,24.00
2018-05-03T16:58:20.570Z,23.90
2018-05-03T17:00:49.603Z,23.50
2018-05-03T17:03:19.207Z,23.80
2018-05-03T17:05:49.439Z,23.60
2018-05-03T17:08:20.425Z,22.90
2018-05-03T17:10:49.174Z,22.30
2018-05-03T17:13:20.634Z,22.50
2018-05-03T17:15:49.974Z,22.50
2018-05-03T17:18:19.159Z,22.70
2018-05-03T17:20:48.965Z,22.70
2018-05-03T17:23:18.363Z,22.10
2018-05-03T17:25:47.108Z,22.30
2018-05-03T17:28:16.888Z,22.30
2018-05-03T17:30:45.844Z,22.10
2018-05-03T17:33:15.350Z,22.20
2018-05-03T17:35:44.181Z,22.20
2018-05-03T17:38:13.029Z,21.90
2018-05-03T17:40:41.809Z,21.50
2018-05-03T17:43:10.605Z,21.50
2018-05-03T17:45:39.391Z,21.70
2018-05-03T17:48:08.943Z,21.60
2018-05-03T17:50:37.707Z,21.60
2018-05-03T17:53:06.446Z,21.30
2018-05-03T17:55:35.231Z,21.30
2018-05-03T17:58:04.031Z,21.30
2018-05-03T18:00:32.770Z,21.20
2018-05-03T18:03:01.560Z,21.40
2018-05-03T18:05:30.315Z,21.40
2018-05-03T18:07:59.168Z,21.60
2018-05-03T18:10:27.917Z,21.40
2018-05-03T18:12:56.969Z,21.30
2018-05-03T18:15:25.706Z,21.20
2018-05-03T18:17:54.435Z,21.30
2018-05-03T18:20:23.242Z,21.20
2018-05-03T18:22:52.025Z,21.30
2018-05-03T18:25:21.152Z,21.40
2018-05-03T18:27:51.815Z,21.10
2018-05-03T18:30:21.148Z,21.10
2018-05-03T18:32:49.935Z,21.00
2018-05-03T18:35:18.694Z,21.10
2018-05-03T18:37:47.458Z,21.00
2018-05-03T18:40:16.433Z,21.00
2018-05-03T18:42:45.197Z,21.30
2018-05-03T18:45:13.964Z,21.10
2018-05-03T18:47:42.797Z,20.90
2018-05-03T18:50:11.648Z,20.70
2018-05-03T18:52:40.498Z,20.50
2018-05-03T18:55:10.101Z,20.70
2018-05-03T18:57:38.976Z,20.70
2018-05-03T19:00:07.768Z,20.70
2018-05-03T19:02:37.351Z,20.70
2018-05-03T19:05:06.274Z,20.70
2018-05-03T19:07:35.194Z,20.70
2018-05-03T19:10:04.001Z,20.80
2018-05-03T19:12:32.873Z,20.30
2018-05-03T19:15:02.392Z,20.10
2018-05-03T19:17:31.169Z,20.10
2018-05-03T19:19:59.977Z,20.00
2018-05-03T19:22:28.734Z,19.90
2018-05-03T19:24:57.503Z,20.00
2018-05-03T19:27:27.841Z,19.70
2018-05-03T19:32:56.789Z,20.00
2018-05-03T19:35:25.635Z,19.80
2018-05-03T19:37:54.443Z,19.60
2018-05-03T19:40:23.223Z,19.70
2018-05-03T19:42:52.784Z,19.70
2018-05-03T19:45:21.660Z,19.60
2018-05-03T19:47:50.535Z,19.80
2018-05-03T19:50:19.316Z,19.70
2018-05-03T19:52:48.698Z,19.50
2018-05-03T19:55:18.305Z,19.20
2018-05-03T19:57:47.030Z,19.20
2018-05-03T20:00:15.801Z,19.30
2018-05-03T20:02:44.580Z,19.50
2018-05-03T20:05:13.501Z,19.50
2018-05-03T20:07:42.274Z,19.20
2018-05-03T20:10:11.051Z,19.30
2018-05-03T20:12:40.744Z,19.60
2018-05-03T20:15:09.586Z,19.40
2018-05-03T20:17:38.276Z,19.30
2018-05-03T20:20:08.567Z,19.00
2018-05-03T20:22:37.395Z,19.00
2018-05-03T20:25:06.192Z,19.10
2018-05-03T20:27:34.945Z,18.80
2018-05-03T20:30:03.696Z,18.90
2018-05-03T20:32:32.526Z,19.00
2018-05-03T20:35:01.284Z,18.70
2018-05-03T20:37:31.285Z,18.40
2018-05-03T20:40:00.861Z,18.50
2018-05-03T20:42:30.440Z,18.40
2018-05-03T20:44:59.278Z,18.40
2018-05-03T20:47:28.517Z,18.50
2018-05-03T20:49:57.318Z,18.50
2018-05-03T20:52:26.102Z,18.50
2018-05-03T20:54:54.972Z,18.70
2018-05-03T20:57:23.778Z,18.80
2018-05-03T20:59:52.532Z,18.50
2018-05-03T21:02:22.357Z,18.60
2018-05-03T21:04:52.941Z,18.40
2018-05-03T21:07:22.319Z,18.40
2018-05-03T21:09:51.053Z,17.90
2018-05-03T21:12:20.660Z,18.10
2018-05-03T21:14:49.510Z,18.30
2018-05-03T21:17:18.259Z,18.20
2018-05-03T21:19:47.086Z,18.50
2018-05-03T21:22:15.809Z,18.80
2018-05-03T21:24:44.545Z,19.00
2018-05-03T21:27:13.321Z,19.10
2018-05-03T21:29:42.851Z,18.90
2018-05-03T21:32:11.597Z,18.90
2018-05-03T21:34:40.450Z,19.00
2018-05-03T21:37:09.352Z,18.80
2018-05-03T21:39:38.401Z,18.80
2018-05-03T21:42:07.970Z,19.10
2018-05-03T21:44:36.757Z,19.10
2018-05-03T21:47:05.536Z,19.30
2018-05-03T21:49:34.641Z,18.90
2018-05-03T21:52:03.426Z,19.00
2018-05-03T21:54:32.164Z,18.80
2018-05-03T21:57:01.674Z,18.90
2018-05-03T21:59:30.683Z,18.90
2018-05-03T22:01:59.434Z,18.90
2018-05-03T22:04:28.213Z,18.70
2018-05-03T22:06:56.976Z,18.70
2018-05-03T22:09:25.754Z,18.50
2018-05-03T22:11:54.478Z,18.70
2018-05-03T22:14:23.297Z,18.40
2018-05-03T22:16:53.757Z,18.60
2018-05-03T22:19:22.872Z,18.50
2018-05-03T22:21:51.661Z,18.60
2018-05-03T22:24:22.903Z,18.90
2018-05-03T22:26:51.757Z,18.90
2018-05-03T22:29:20.531Z,18.90
2018-05-03T22:31:49.305Z,18.60
2018-05-03T22:34:18.042Z,18.60
2018-05-03T22:36:47.579Z,18.70
2018-05-03T22:39:16.368Z,18.70
2018-05-03T22:41:45.144Z,18.50
2018-05-03T22:44:14.620Z,18.50
2018-05-03T22:46:44.710Z,18.60
2018-05-03T22:49:14.919Z,18.40
2018-05-03T22:51:45.024Z,18.40
2018-05-03T22:54:14.073Z,18.30
2018-05-03T22:56:42.849Z,18.20
2018-05-03T22:59:12.388Z,18.20
2018-05-03T23:01:41.153Z,18.20
2018-05-03T23:04:09.912Z,18.30
2018-05-03T23:06:38.673Z,18.30
2018-05-03T23:09:07.441Z,18.20
2018-05-03T23:11:36.964Z,17.90
2018-05-03T23:14:05.718Z,18.00
2018-05-03T23:16:35.000Z,18.00
2018-05-03T23:19:03.744Z,17.70
2018-05-03T23:21:32.541Z,17.80
2018-05-03T23:24:01.282Z,17.80
2018-05-03T23:26:30.314Z,17.90
2018-05-03T23:28:59.061Z,18.00
2018-05-03T23:31:27.832Z,18.10
2018-05-03T23:33:56.600Z,18.20
2018-05-03T23:36:25.373Z,18.10
2018-05-03T23:38:54.140Z,18.10
2018-05-03T23:41:24.054Z,18.00
2018-05-03T23:43:53.603Z,17.80
2018-05-03T23:46:25.857Z,17.60
2018-05-03T23:48:54.633Z,17.70
2018-05-03T23:51:23.665Z,17.60
2018-05-03T23:53:52.430Z,17.60
2018-05-03T23:56:22.301Z,17.70
2018-05-03T23:58:51.087Z,17.20
